Time;durP1;ratioP1;P1;durP2;ratioP2;P2;SDS_P1;SDS_P2;PMS_P1;PMS_P2;Temp;Humidity;BMP_temperature;BMP_pressure;BME280_temperature;BME280_humidity;BME280_pressure;Samples;Min_cycle;Max_cycle;Signal;HPM_P1;HPM_P2
2021/05/28 00:00:19;;;;;;;0.00;0.00;;;6.20;99.90;;;;;;5010026;28;20602;-66
2021/05/28 00:02:45;;;;;;;0.00;0.00;;;6.20;99.90;;;;;;5010007;28;20575;-61
2021/05/28 00:05:16;;;;;;;0.00;0.00;;;6.30;99.90;;;;;;5010142;28;20204;-65
2021/05/28 00:07:43;;;;;;;0.00;0.00;;;6.20;99.90;;;;;;5009690;28;20201;-66
2021/05/28 00:10:11;;;;;;;0.00;0.00;;;6.20;99.90;;;;;;5009637;28;20286;-64
2021/05/28 00:12:38;;;;;;;0.00;0.00;;;6.20;99.90;;;;;;5009808;28;20566;-67
2021/05/28 00:15:06;;;;;;;0.00;0.00;;;6.10;99.90;;;;;;5009789;28;20212;-68
2021/05/28 00:17:33;;;;;;;0.00;0.00;;;6.10;99.90;;;;;;5009781;28;20220;-64
2021/05/28 00:19:59;;;;;;;0.00;0.00;;;6.10;99.90;;;;;;5009509;28;20740;-60
2021/05/28 00:22:27;;;;;;;0.00;0.00;;;6.20;99.90;;;;;;5009892;28;20205;-60
2021/05/28 00:24:53;;;;;;;0.00;0.00;;;6.30;99.90;;;;;;5011645;28;20263;-60
2021/05/28 00:27:20;;;;;;;0.00;0.00;;;6.30;99.90;;;;;;5013993;28;20216;-60
2021/05/28 00:29:46;;;;;;;0.00;0.00;;;6.30;99.90;;;;;;5013686;28;20193;-60
2021/05/28 00:32:13;;;;;;;0.00;0.00;;;6.20;99.90;;;;;;5013768;28;20666;-63
2021/05/28 00:34:39;;;;;;;0.00;0.00;;;6.20;99.90;;;;;;5013825;28;20209;-61
2021/05/28 00:37:05;;;;;;;0.00;0.00;;;6.10;99.90;;;;;;5015046;28;20262;-62
2021/05/28 00:39:33;;;;;;;0.00;0.00;;;6.00;99.90;;;;;;5013454;28;20215;-61
2021/05/28 00:41:59;;;;;;;0.00;0.00;;;5.90;99.90;;;;;;5013286;28;20212;-63
2021/05/28 00:44:28;;;;;;;3.60;3.40;;;5.90;99.90;;;;;;5013489;28;20208;-61
2021/05/28 00:46:55;;;;;;;0.00;0.00;;;5.80;99.90;;;;;;5013165;28;20236;-60
2021/05/28 00:49:21;;;;;;;0.00;0.00;;;5.80;99.90;;;;;;5013542;28;20405;-60
2021/05/28 00:51:48;;;;;;;0.00;0.00;;;5.90;99.90;;;;;;5013596;28;20197;-63
2021/05/28 00:54:14;;;;;;;0.00;0.00;;;5.90;99.90;;;;;;5013427;28;20213;-61
2021/05/28 00:56:42;;;;;;;0.00;0.00;;;5.80;99.90;;;;;;5012551;28;20216;-61
2021/05/28 00:59:10;;;;;;;0.00;0.00;;;5.80;99.90;;;;;;5013364;28;20201;-60
2021/05/28 01:01:36;;;;;;;0.00;0.00;;;5.80;99.90;;;;;;5013299;28;20212;-63
2021/05/28 01:04:03;;;;;;;0.00;0.00;;;5.70;99.90;;;;;;5012837;28;20205;-61
2021/05/28 01:06:30;;;;;;;0.00;0.00;;;5.70;99.90;;;;;;5012763;28;20228;-61
2021/05/28 01:08:56;;;;;;;0.00;0.00;;;5.70;99.90;;;;;;5013202;28;20208;-60
2021/05/28 01:11:23;;;;;;;0.00;0.00;;;5.80;99.90;;;;;;5013094;28;20204;-61
2021/05/28 01:13:50;;;;;;;0.00;0.00;;;5.80;99.90;;;;;;5013033;28;20259;-63
2021/05/28 01:16:17;;;;;;;0.00;0.00;;;5.80;99.90;;;;;;5012713;28;20201;-61
2021/05/28 01:18:44;;;;;;;0.00;0.00;;;5.90;99.90;;;;;;5012984;28;20201;-64
2021/05/28 01:21:11;;;;;;;0.00;0.00;;;5.90;99.90;;;;;;5013130;28;20627;-63
2021/05/28 01:23:38;;;;;;;0.00;0.00;;;5.90;99.90;;;;;;5013429;28;20205;-65
2021/05/28 01:26:05;;;;;;;0.00;0.00;;;5.80;99.90;;;;;;5012807;28;20248;-60
2021/05/28 01:28:31;;;;;;;0.00;0.00;;;5.80;99.90;;;;;;5012450;28;20233;-61
2021/05/28 01:30:59;;;;;;;0.00;0.00;;;5.70;99.90;;;;;;5012484;28;20573;-65
2021/05/28 01:33:25;;;;;;;0.00;0.00;;;5.70;99.90;;;;;;5013844;28;20213;-66
2021/05/28 01:35:52;;;;;;;0.00;0.00;;;5.60;99.90;;;;;;5011807;28;20209;-60
2021/05/28 01:38:19;;;;;;;0.00;0.00;;;5.60;99.90;;;;;;5012443;28;20208;-61
2021/05/28 01:40:46;;;;;;;0.00;0.00;;;5.60;99.90;;;;;;5012483;28;20213;-61
2021/05/28 01:43:13;;;;;;;0.00;0.00;;;5.60;99.90;;;;;;5012369;28;20208;-60
2021/05/28 01:45:39;;;;;;;0.00;0.00;;;5.60;99.90;;;;;;5012521;28;20231;-62
2021/05/28 01:48:06;;;;;;;0.00;0.00;;;5.50;99.90;;;;;;5012790;28;20201;-60
2021/05/28 01:50:43;;;;;;;0.00;0.00;;;5.40;99.90;;;;;;5012200;28;20197;-65
2021/05/28 01:53:09;;;;;;;0.00;0.00;;;5.30;99.90;;;;;;5011369;28;20219;-65
2021/05/28 01:55:36;;;;;;;0.00;0.00;;;5.30;99.90;;;;;;5011414;28;20209;-63
2021/05/28 01:58:08;;;;;;;0.00;0.00;;;5.20;99.90;;;;;;5011945;28;20582;-67
2021/05/28 02:00:35;;;;;;;0.00;0.00;;;5.20;99.90;;;;;;5011987;28;20208;-65
2021/05/28 02:03:01;;;;;;;0.00;0.00;;;5.20;99.90;;;;;;5011802;28;20201;-62
2021/05/28 02:05:28;;;;;;;0.00;0.00;;;5.20;99.90;;;;;;5011954;28;20209;-60
2021/05/28 02:07:54;;;;;;;0.00;0.00;;;5.20;99.90;;;;;;5011910;28;20212;-60
2021/05/28 02:10:21;;;;;;;0.00;0.00;;;5.20;99.90;;;;;;5011560;28;20239;-62
2021/05/28 02:12:47;;;;;;;0.00;0.00;;;5.20;99.90;;;;;;5011740;28;20737;-61
2021/05/28 02:15:16;;;;;;;0.10;0.10;;;5.20;99.90;;;;;;5012043;28;20201;-60
2021/05/28 02:17:43;;;;;;;0.00;0.00;;;5.20;99.90;;;;;;5010940;28;20232;-61
2021/05/28 02:20:11;;;;;;;0.00;0.00;;;5.20;99.90;;;;;;5011824;28;20205;-61
2021/05/28 02:22:37;;;;;;;0.00;0.00;;;5.20;99.90;;;;;;5011614;28;20219;-69
2021/05/28 02:25:05;;;;;;;0.00;0.00;;;5.20;99.90;;;;;;5011310;28;20228;-67
2021/05/28 02:27:32;;;;;;;0.00;0.00;;;5.20;99.90;;;;;;5011366;28;20590;-66
2021/05/28 02:29:58;;;;;;;0.00;0.00;;;5.10;99.90;;;;;;5012683;28;20213;-63
2021/05/28 02:32:26;;;;;;;0.00;0.00;;;5.10;99.90;;;;;;5011283;28;20212;-60
2021/05/28 02:34:53;;;;;;;0.00;0.00;;;5.10;99.90;;;;;;5011218;28;20208;-60
2021/05/28 02:37:20;;;;;;;0.00;0.00;;;5.10;99.90;;;;;;5011392;28;20205;-61
2021/05/28 02:39:46;;;;;;;0.00;0.00;;;5.00;99.90;;;;;;5011511;28;20201;-60
2021/05/28 02:42:13;;;;;;;0.00;0.00;;;5.00;99.90;;;;;;5011213;28;20213;-61
2021/05/28 02:44:40;;;;;;;0.00;0.00;;;5.00;99.90;;;;;;5011384;28;20205;-61
2021/05/28 02:47:07;;;;;;;0.00;0.00;;;4.90;99.90;;;;;;5009091;28;20232;-63
2021/05/28 02:49:36;;;;;;;0.00;0.00;;;4.90;99.90;;;;;;5010981;28;20216;-61
2021/05/28 02:52:03;;;;;;;0.00;0.00;;;4.90;99.90;;;;;;5011050;28;20213;-61
2021/05/28 02:54:29;;;;;;;0.00;0.00;;;4.90;99.90;;;;;;5010406;28;20215;-61
2021/05/28 02:56:56;;;;;;;0.00;0.00;;;5.00;99.90;;;;;;5010987;28;20201;-61
2021/05/28 02:59:22;;;;;;;0.00;0.00;;;5.00;99.90;;;;;;5010876;28;20205;-62
2021/05/28 03:01:50;;;;;;;0.00;0.00;;;5.10;99.90;;;;;;5010730;28;20201;-61
2021/05/28 03:04:17;;;;;;;0.00;0.00;;;5.20;99.90;;;;;;5010738;28;20197;-61
2021/05/28 03:06:44;;;;;;;0.00;0.00;;;5.20;99.90;;;;;;5010627;28;20221;-61
2021/05/28 03:09:11;;;;;;;0.00;0.00;;;5.20;99.90;;;;;;5010707;28;20197;-62
2021/05/28 03:11:38;;;;;;;0.00;0.00;;;5.20;99.90;;;;;;5011074;28;20193;-63
2021/05/28 03:14:04;;;;;;;0.00;0.00;;;5.20;99.90;;;;;;5011206;28;20292;-61
2021/05/28 03:16:32;;;;;;;0.00;0.00;;;5.20;99.90;;;;;;5010515;28;20207;-62
2021/05/28 03:19:01;;;;;;;0.00;0.00;;;5.20;99.90;;;;;;5010377;28;20209;-61
2021/05/28 03:21:37;;;;;;;0.00;0.00;;;5.20;99.90;;;;;;5010376;28;20212;-61
2021/05/28 03:24:06;;;;;;;0.00;0.00;;;5.20;99.90;;;;;;5010532;28;20292;-60
2021/05/28 03:26:33;;;;;;;0.00;0.00;;;5.20;99.90;;;;;;5011619;28;20229;-61
2021/05/28 03:29:00;;;;;;;0.00;0.00;;;5.20;99.90;;;;;;5010366;28;20578;-62
2021/05/28 03:31:26;;;;;;;0.00;0.00;;;5.10;99.90;;;;;;5010305;28;20208;-61
2021/05/28 03:33:53;;;;;;;0.00;0.00;;;5.10;99.90;;;;;;5010454;28;20212;-62
2021/05/28 03:36:20;;;;;;;0.00;0.00;;;5.10;99.90;;;;;;5011976;28;20732;-66
2021/05/28 03:38:47;;;;;;;0.00;0.00;;;5.00;99.90;;;;;;5012401;28;20205;-63
2021/05/28 03:41:15;;;;;;;0.00;0.00;;;5.00;99.90;;;;;;5011026;28;20232;-61
2021/05/28 03:43:42;;;;;;;0.00;0.00;;;5.00;99.90;;;;;;5009999;28;20204;-62
2021/05/28 03:46:08;;;;;;;0.00;0.00;;;5.00;99.90;;;;;;5010377;28;20228;-62
2021/05/28 03:48:35;;;;;;;0.00;0.00;;;5.00;99.90;;;;;;5010196;28;20209;-64
2021/05/28 03:51:01;;;;;;;0.00;0.00;;;5.00;99.90;;;;;;5009912;28;20539;-61
2021/05/28 03:53:28;;;;;;;0.00;0.00;;;5.00;99.90;;;;;;5009948;28;20205;-60
2021/05/28 03:55:54;;;;;;;0.00;0.00;;;5.00;99.90;;;;;;5009484;28;20204;-61
2021/05/28 03:58:22;;;;;;;0.00;0.00;;;5.10;99.90;;;;;;5009723;28;20556;-62
2021/05/28 04:00:48;;;;;;;0.17;0.17;;;5.20;99.90;;;;;;5011473;28;20235;-61
2021/05/28 04:03:15;;;;;;;0.00;0.00;;;5.30;99.90;;;;;;5011782;28;20212;-61
2021/05/28 04:05:41;;;;;;;1.03;0.93;;;5.40;99.90;;;;;;5010448;28;20205;-61
2021/05/28 04:08:08;;;;;;;0.00;0.00;;;5.50;99.90;;;;;;5011145;28;20215;-62
2021/05/28 04:10:34;;;;;;;0.00;0.00;;;5.60;99.90;;;;;;5011601;28;20232;-60
2021/05/28 04:13:01;;;;;;;0.00;0.00;;;5.70;99.90;;;;;;5010826;28;20215;-61
2021/05/28 04:15:28;;;;;;;0.00;0.00;;;5.70;99.90;;;;;;5009678;28;20201;-60
2021/05/28 04:17:54;;;;;;;0.00;0.00;;;5.80;99.90;;;;;;5009620;28;20208;-63
2021/05/28 04:20:21;;;;;;;0.00;0.00;;;5.80;99.90;;;;;;5010729;28;20208;-63
2021/05/28 04:22:48;;;;;;;0.00;0.00;;;5.90;99.90;;;;;;5011944;28;20205;-61
2021/05/28 04:25:14;;;;;;;0.00;0.00;;;5.90;99.90;;;;;;5010489;28;20212;-61
2021/05/28 04:27:41;;;;;;;0.00;0.00;;;6.10;99.90;;;;;;5010809;28;20582;-62
2021/05/28 04:30:08;;;;;;;0.00;0.00;;;6.20;99.90;;;;;;5011863;28;20212;-61
2021/05/28 04:32:35;;;;;;;0.00;0.00;;;6.50;99.90;;;;;;5010332;28;20288;-64
2021/05/28 04:35:02;;;;;;;0.00;0.00;;;6.70;99.90;;;;;;5010100;28;20205;-61
2021/05/28 04:37:29;;;;;;;0.00;0.00;;;6.80;99.90;;;;;;5011519;28;20279;-62
2021/05/28 04:39:55;;;;;;;0.00;0.00;;;7.00;99.90;;;;;;5011075;28;20220;-62
2021/05/28 04:42:22;;;;;;;0.20;0.20;;;7.20;99.90;;;;;;5009750;28;20610;-63
2021/05/28 04:44:48;;;;;;;0.00;0.00;;;7.40;99.90;;;;;;5010272;28;20208;-62
2021/05/28 04:47:14;;;;;;;0.00;0.00;;;7.60;99.90;;;;;;5011208;28;20227;-61
2021/05/28 04:49:42;;;;;;;0.00;0.00;;;7.80;99.90;;;;;;5010806;28;20205;-63
2021/05/28 04:52:08;;;;;;;0.00;0.00;;;8.00;99.90;;;;;;5009596;28;20201;-66
2021/05/28 04:54:35;;;;;;;0.00;0.00;;;8.10;99.90;;;;;;4992265;28;20232;-64
2021/05/28 04:57:01;;;;;;;0.00;0.00;;;8.30;99.90;;;;;;5008473;28;20216;-61
2021/05/28 04:59:28;;;;;;;0.00;0.00;;;8.50;99.90;;;;;;5009692;28;20212;-63
2021/05/28 05:01:54;;;;;;;0.00;0.00;;;8.70;99.90;;;;;;5009386;28;20205;-61
2021/05/28 05:04:21;;;;;;;0.00;0.00;;;8.90;99.90;;;;;;5010015;28;20212;-62
2021/05/28 05:06:48;;;;;;;0.00;0.00;;;9.10;99.90;;;;;;5011026;28;20693;-63
2021/05/28 05:09:14;;;;;;;0.30;0.13;;;9.30;99.90;;;;;;5010623;28;20201;-61
2021/05/28 05:11:41;;;;;;;1.10;1.10;;;9.40;99.90;;;;;;5012158;28;20228;-61
2021/05/28 05:14:07;;;;;;;0.00;0.00;;;9.60;99.90;;;;;;5012903;28;20212;-61
2021/05/28 05:16:34;;;;;;;0.00;0.00;;;9.70;99.90;;;;;;5012907;28;20212;-61
2021/05/28 05:19:01;;;;;;;0.43;0.33;;;9.70;99.90;;;;;;5012791;28;20284;-61
2021/05/28 05:21:27;;;;;;;0.47;0.47;;;9.80;99.90;;;;;;5012408;28;20210;-61
2021/05/28 05:23:55;;;;;;;0.20;0.20;;;9.80;99.90;;;;;;5012430;28;20200;-61
2021/05/28 05:26:21;;;;;;;0.00;0.00;;;9.80;99.90;;;;;;5012402;28;20237;-61
2021/05/28 05:28:48;;;;;;;0.40;0.40;;;9.90;99.90;;;;;;5012584;28;20605;-61
2021/05/28 05:31:14;;;;;;;0.00;0.00;;;10.10;99.90;;;;;;5012539;28;20216;-61
2021/05/28 05:33:41;;;;;;;0.00;0.00;;;10.10;99.90;;;;;;5012387;28;20627;-61
2021/05/28 05:36:07;;;;;;;0.33;0.33;;;10.20;99.90;;;;;;5012757;28;20229;-61
2021/05/28 05:38:34;;;;;;;0.00;0.00;;;10.40;99.90;;;;;;5012365;28;20682;-61
2021/05/28 05:41:01;;;;;;;0.00;0.00;;;10.60;99.90;;;;;;5012207;28;20756;-62
2021/05/28 05:43:28;;;;;;;0.10;0.10;;;10.70;99.90;;;;;;5012412;28;20223;-61
2021/05/28 05:45:54;;;;;;;5.60;2.53;;;10.90;99.90;;;;;;5012404;28;20201;-62
2021/05/28 05:48:21;;;;;;;0.00;0.00;;;11.10;99.90;;;;;;5012589;28;20655;-61
2021/05/28 05:50:47;;;;;;;1.77;0.97;;;11.10;99.90;;;;;;5012581;28;20201;-61
2021/05/28 05:53:13;;;;;;;0.00;0.00;;;11.30;99.90;;;;;;5012124;28;20211;-61
2021/05/28 05:55:40;;;;;;;0.20;0.20;;;11.50;99.90;;;;;;5011279;28;20615;-61
2021/05/28 05:58:07;;;;;;;0.00;0.00;;;11.80;99.90;;;;;;5012364;28;20201;-61
2021/05/28 06:00:34;;;;;;;0.00;0.00;;;11.90;99.90;;;;;;5012204;28;20552;-61
2021/05/28 06:03:00;;;;;;;0.00;0.00;;;11.90;99.90;;;;;;5011841;28;20208;-62
2021/05/28 06:05:27;;;;;;;0.00;0.00;;;11.80;99.90;;;;;;5011804;28;20209;-61
2021/05/28 06:07:53;;;;;;;0.00;0.00;;;12.10;99.90;;;;;;5012013;28;20255;-61
2021/05/28 06:10:20;;;;;;;0.33;0.33;;;12.00;99.90;;;;;;5011471;28;20244;-62
2021/05/28 06:12:46;;;;;;;0.60;0.23;;;12.10;99.90;;;;;;5011938;28;20208;-61
2021/05/28 06:15:14;;;;;;;0.20;0.20;;;12.20;99.90;;;;;;5012487;28;20209;-61
2021/05/28 06:17:40;;;;;;;0.00;0.00;;;12.50;99.90;;;;;;5011869;28;20259;-62
2021/05/28 06:20:08;;;;;;;0.00;0.00;;;12.70;99.90;;;;;;5011969;28;20208;-62
2021/05/28 06:22:34;;;;;;;2.83;2.63;;;12.80;99.90;;;;;;5011677;28;20217;-63
2021/05/28 06:25:01;;;;;;;0.87;0.87;;;12.80;99.90;;;;;;5011660;28;20193;-61
2021/05/28 06:27:27;;;;;;;0.33;0.33;;;13.00;99.90;;;;;;5011592;28;20229;-61
2021/05/28 06:29:54;;;;;;;2.07;1.87;;;13.50;99.90;;;;;;5011492;28;20561;-62
2021/05/28 06:32:21;;;;;;;0.00;0.00;;;13.70;99.90;;;;;;5011463;28;20197;-61
2021/05/28 06:34:47;;;;;;;0.00;0.00;;;13.70;99.90;;;;;;5011493;28;20216;-61
2021/05/28 06:37:14;;;;;;;1.70;0.73;;;13.80;99.90;;;;;;5011582;28;20224;-61
2021/05/28 06:39:41;;;;;;;0.00;0.00;;;13.70;99.90;;;;;;5011710;28;20201;-62
2021/05/28 06:42:08;;;;;;;0.10;0.10;;;13.70;99.90;;;;;;5011340;28;20213;-61
2021/05/28 06:44:34;;;;;;;0.20;0.20;;;13.80;99.90;;;;;;5011250;28;20225;-61
2021/05/28 06:47:01;;;;;;;0.00;0.00;;;13.90;99.90;;;;;;5010916;28;20278;-61
2021/05/28 06:49:28;;;;;;;0.30;0.20;;;13.80;99.90;;;;;;5011169;28;20204;-62
2021/05/28 06:51:54;;;;;;;1.60;1.50;;;14.00;99.90;;;;;;5010841;28;20642;-62
2021/05/28 06:54:21;;;;;;;0.07;0.07;;;14.00;99.90;;;;;;5010403;28;20224;-62
2021/05/28 06:56:48;;;;;;;0.33;0.33;;;14.10;99.90;;;;;;5010795;28;20678;-62
2021/05/28 06:59:14;;;;;;;0.53;0.53;;;14.10;99.90;;;;;;5011051;28;20209;-62
2021/05/28 07:01:41;;;;;;;0.10;0.10;;;13.90;99.90;;;;;;5011053;28;20197;-62
2021/05/28 07:04:07;;;;;;;2.13;1.23;;;13.70;99.90;;;;;;5011374;28;20232;-61
2021/05/28 07:06:35;;;;;;;0.33;0.33;;;13.70;99.90;;;;;;5010820;28;20225;-61
2021/05/28 07:09:02;;;;;;;1.27;1.07;;;13.90;99.90;;;;;;5010426;28;20209;-61
2021/05/28 07:11:29;;;;;;;0.10;0.10;;;14.20;99.90;;;;;;5010534;28;20209;-61
2021/05/28 07:13:55;;;;;;;0.57;0.57;;;14.70;99.90;;;;;;5010885;28;20259;-62
2021/05/28 07:16:22;;;;;;;0.43;0.37;;;15.30;99.90;;;;;;5010710;28;20209;-61
2021/05/28 07:18:48;;;;;;;1.27;0.80;;;16.00;99.90;;;;;;5010644;28;20212;-61
2021/05/28 07:21:16;;;;;;;0.33;0.33;;;16.20;99.90;;;;;;5010374;28;20225;-61
2021/05/28 07:23:44;;;;;;;0.43;0.20;;;16.30;99.90;;;;;;5010528;28;20205;-62
2021/05/28 07:26:10;;;;;;;0.00;0.00;;;16.20;99.90;;;;;;5010300;28;20713;-62
2021/05/28 07:28:37;;;;;;;0.20;0.20;;;16.00;99.90;;;;;;5010630;28;20224;-61
2021/05/28 07:31:03;;;;;;;0.00;0.00;;;16.10;99.90;;;;;;5009975;28;20205;-63
2021/05/28 07:33:30;;;;;;;0.00;0.00;;;16.10;99.90;;;;;;5009528;28;20200;-62
2021/05/28 07:35:56;;;;;;;0.40;0.23;;;16.00;99.90;;;;;;5010248;28;20209;-61
2021/05/28 07:38:23;;;;;;;0.00;0.00;;;15.90;99.90;;;;;;5010148;28;20208;-61
2021/05/28 07:40:50;;;;;;;0.97;0.73;;;16.00;99.90;;;;;;5010201;28;20231;-61
2021/05/28 07:43:16;;;;;;;0.10;0.10;;;16.40;99.90;;;;;;5010219;28;20588;-61
2021/05/28 07:45:48;;;;;;;1.43;1.30;;;16.80;99.90;;;;;;5010052;28;20613;-62
2021/05/28 07:48:15;;;;;;;0.00;0.00;;;17.00;99.90;;;;;;5010072;28;20209;-62
2021/05/28 07:50:48;;;;;;;0.10;0.10;;;17.00;99.90;;;;;;5010101;28;21293;-62
2021/05/28 07:53:16;;;;;;;0.00;0.00;;;17.00;99.90;;;;;;5010117;28;20274;-62
2021/05/28 07:55:43;;;;;;;0.00;0.00;;;16.70;99.90;;;;;;5009317;28;20666;-61
2021/05/28 07:58:10;;;;;;;0.00;0.00;;;16.60;99.90;;;;;;5010302;28;20212;-61
2021/05/28 08:00:37;;;;;;;0.80;0.47;;;16.40;99.90;;;;;;5009053;28;20201;-61
2021/05/28 08:03:04;;;;;;;0.43;0.43;;;16.50;99.90;;;;;;5010070;28;20201;-61
2021/05/28 08:05:31;;;;;;;0.10;0.10;;;16.50;99.90;;;;;;5009663;28;20235;-61
2021/05/28 08:07:59;;;;;;;0.00;0.00;;;16.30;99.90;;;;;;5009894;28;20240;-61
2021/05/28 08:10:26;;;;;;;0.00;0.00;;;16.30;99.90;;;;;;5010347;28;20233;-61
2021/05/28 08:12:52;;;;;;;0.10;0.10;;;16.30;99.90;;;;;;5009711;28;20647;-61
2021/05/28 08:15:20;;;;;;;0.00;0.00;;;16.30;99.90;;;;;;5009701;28;20205;-64
2021/05/28 08:17:47;;;;;;;0.83;0.83;;;16.30;99.90;;;;;;5009518;28;20201;-61
2021/05/28 08:20:14;;;;;;;0.00;0.00;;;16.30;99.90;;;;;;5009628;28;20219;-62
2021/05/28 08:22:41;;;;;;;0.27;0.27;;;16.20;99.90;;;;;;5009823;28;20201;-62
2021/05/28 08:25:08;;;;;;;0.73;0.73;;;16.10;99.90;;;;;;5010178;28;20208;-61
2021/05/28 08:27:35;;;;;;;0.77;0.47;;;16.40;99.90;;;;;;5010200;28;20294;-62
2021/05/28 08:30:02;;;;;;;0.00;0.00;;;17.10;99.90;;;;;;5008439;28;20282;-61
2021/05/28 08:32:29;;;;;;;0.77;0.53;;;18.10;99.90;;;;;;5009528;28;20211;-62
2021/05/28 08:34:56;;;;;;;1.48;1.38;;;19.10;99.90;;;;;;5009571;28;20208;-62
2021/05/28 08:37:22;;;;;;;0.00;0.00;;;20.00;99.90;;;;;;5009408;28;20650;-62
2021/05/28 08:39:49;;;;;;;0.10;0.10;;;20.20;99.90;;;;;;5009674;28;20223;-61
2021/05/28 08:42:19;;;;;;;0.52;0.35;;;19.90;99.90;;;;;;5009418;28;20205;-62
2021/05/28 08:44:46;;;;;;;8.25;7.53;;;19.50;99.90;;;;;;5009558;28;20205;-62
2021/05/28 08:47:15;;;;;;;0.88;0.82;;;20.10;99.90;;;;;;5013317;28;20229;-63
2021/05/28 08:49:46;;;;;;;0.00;0.00;;;21.40;99.90;;;;;;5013474;28;20212;-62
2021/05/28 08:52:13;;;;;;;0.00;0.00;;;21.90;99.90;;;;;;5013059;28;20196;-62
2021/05/28 08:54:39;;;;;;;6.38;0.65;;;22.00;99.90;;;;;;5012934;28;20238;-64
2021/05/28 08:57:06;;;;;;;0.03;0.03;;;21.30;99.90;;;;;;5013434;28;20670;-61
2021/05/28 08:59:33;;;;;;;0.32;0.17;;;21.00;99.90;;;;;;5013065;28;20211;-62
2021/05/28 09:01:59;;;;;;;0.00;0.00;;;21.60;99.90;;;;;;5012835;28;20212;-62
2021/05/28 09:04:26;;;;;;;0.30;0.30;;;22.30;99.90;;;;;;5013090;28;20572;-63
2021/05/28 09:06:53;;;;;;;1.00;0.40;;;23.20;99.90;;;;;;5013268;28;20228;-62
2021/05/28 09:09:23;;;;;;;1.67;1.27;;;23.60;99.90;;;;;;5012922;28;20224;-63
2021/05/28 09:11:54;;;;;;;0.00;0.00;;;23.70;99.90;;;;;;5012842;28;20205;-62
2021/05/28 09:14:32;;;;;;;0.80;0.60;;;24.30;99.90;;;;;;5012868;28;20201;-62
2021/05/28 09:16:59;;;;;;;0.00;0.00;;;24.20;99.90;;;;;;5012888;28;20741;-62
2021/05/28 09:19:25;;;;;;;0.10;0.10;;;24.60;99.90;;;;;;5012930;28;20200;-62
2021/05/28 09:21:58;;;;;;;0.20;0.20;;;24.40;99.90;;;;;;5013233;28;20208;-62
2021/05/28 09:24:31;;;;;;;0.10;0.10;;;23.40;99.90;;;;;;5012437;28;20659;-62
2021/05/28 09:27:17;;;;;;;0.10;0.10;;;22.90;99.90;;;;;;5012314;28;20228;-62
2021/05/28 09:30:03;;;;;;;0.03;0.03;;;23.00;99.90;;;;;;5011553;28;20208;-63
2021/05/28 09:32:30;;;;;;;0.00;0.00;;;23.90;99.90;;;;;;5012122;28;20545;-62
2021/05/28 09:34:57;;;;;;;0.00;0.00;;;24.30;99.90;;;;;;5012518;28;20647;-63
2021/05/28 09:37:36;;;;;;;0.20;0.20;;;24.60;99.90;;;;;;5012309;28;20208;-63
2021/05/28 09:40:13;;;;;;;0.00;0.00;;;24.20;99.90;;;;;;5012332;28;20200;-62
2021/05/28 09:42:56;;;;;;;0.13;0.13;;;24.00;99.90;;;;;;5012187;28;20204;-62
2021/05/28 09:45:32;;;;;;;0.73;0.47;;;24.20;99.90;;;;;;5012374;28;20201;-63
2021/05/28 09:48:00;;;;;;;0.80;0.40;;;23.90;99.90;;;;;;5011983;28;20627;-63
2021/05/28 09:50:32;;;;;;;0.00;0.00;;;22.70;99.90;;;;;;5012225;28;20282;-64
2021/05/28 09:53:00;;;;;;;0.00;0.00;;;21.70;99.90;;;;;;5012122;28;20259;-62
2021/05/28 09:55:30;;;;;;;0.08;0.08;;;21.10;99.90;;;;;;5011619;28;20578;-63
2021/05/28 09:57:57;;;;;;;0.00;0.00;;;20.70;99.90;;;;;;5011666;28;20204;-63
2021/05/28 10:00:26;;;;;;;0.52;0.28;;;20.60;99.90;;;;;;5012024;28;20201;-62
2021/05/28 10:03:10;;;;;;;0.10;0.10;;;20.60;99.90;;;;;;5014385;28;20213;-62
2021/05/28 10:05:38;;;;;;;0.35;0.35;;;21.20;99.90;;;;;;5011848;28;20201;-63
2021/05/28 10:08:08;;;;;;;0.20;0.20;;;21.70;99.90;;;;;;5011720;28;20686;-63
2021/05/28 10:10:36;;;;;;;0.82;0.60;;;22.70;99.90;;;;;;5011838;28;20241;-64
2021/05/28 10:13:10;;;;;;;0.00;0.00;;;23.40;99.90;;;;;;5011920;28;20201;-62
2021/05/28 10:15:37;;;;;;;1.02;0.20;;;24.10;99.90;;;;;;5011885;28;20664;-63
2021/05/28 10:18:04;;;;;;;0.03;0.03;;;24.60;99.90;;;;;;5011760;28;20209;-65
2021/05/28 10:20:31;;;;;;;3.08;2.25;;;24.90;99.90;;;;;;5011718;28;20209;-65
2021/05/28 10:22:57;;;;;;;0.20;0.20;;;24.60;99.90;;;;;;5011805;28;20209;-63
2021/05/28 10:25:25;;;;;;;0.35;0.35;;;24.00;99.90;;;;;;5011565;28;20204;-62
2021/05/28 10:27:56;;;;;;;0.00;0.00;;;23.60;99.90;;;;;;5011643;28;20232;-64
2021/05/28 10:30:26;;;;;;;0.20;0.20;;;23.50;99.90;;;;;;5011464;28;20205;-63
2021/05/28 10:33:19;;;;;;;0.20;0.20;;;23.70;99.90;;;;;;5011646;28;20411;-62
2021/05/28 10:35:48;;;;;;;0.22;0.22;;;24.30;99.90;;;;;;5011578;28;20288;-62
2021/05/28 10:38:41;;;;;;;0.20;0.20;;;24.30;99.90;;;;;;5011451;28;20208;-62
2021/05/28 10:41:33;;;;;;;0.22;0.20;;;24.30;99.90;;;;;;5011554;28;20209;-62
2021/05/28 10:44:04;;;;;;;0.17;0.17;;;23.90;99.90;;;;;;5010973;28;20259;-63
2021/05/28 10:46:31;;;;;;;0.00;0.00;;;23.90;99.90;;;;;;5011078;28;20697;-65
2021/05/28 10:49:11;;;;;;;0.63;0.63;;;24.10;99.90;;;;;;5011494;28;20267;-66
2021/05/28 10:52:06;;;;;;;0.52;0.15;;;24.40;99.90;;;;;;5010914;28;20201;-64
2021/05/28 10:54:39;;;;;;;0.20;0.20;;;24.30;99.90;;;;;;5010005;28;20706;-64
2021/05/28 10:57:34;;;;;;;0.47;0.47;;;24.20;99.90;;;;;;5011042;28;20212;-63
2021/05/28 11:00:30;;;;;;;1.48;1.38;;;24.00;99.90;;;;;;5011944;28;20654;-63
2021/05/28 11:03:09;;;;;;;0.32;0.32;;;24.50;99.90;;;;;;5005282;28;20216;-64
2021/05/28 11:05:53;;;;;;;0.45;0.38;;;25.00;99.90;;;;;;5010859;28;20205;-63
2021/05/28 11:08:44;;;;;;;0.60;0.60;;;25.20;99.90;;;;;;5010030;28;20582;-67
2021/05/28 11:11:47;;;;;;;0.00;0.00;;;24.70;99.90;;;;;;5010516;28;20232;-63
2021/05/28 11:14:18;;;;;;;1.40;0.40;;;24.60;99.90;;;;;;5010665;28;20204;-63
2021/05/28 11:17:10;;;;;;;0.52;0.40;;;24.20;99.90;;;;;;5010815;28;20216;-64
2021/05/28 11:19:43;;;;;;;0.00;0.00;;;24.10;99.90;;;;;;5006666;28;20638;-63
2021/05/28 11:22:12;;;;;;;0.30;0.30;;;24.40;99.90;;;;;;5010543;28;20399;-64
2021/05/28 11:24:43;;;;;;;0.73;0.70;;;24.10;99.90;;;;;;5010512;28;20217;-62
2021/05/28 11:27:14;;;;;;;0.10;0.10;;;23.70;99.90;;;;;;5010614;28;20224;-63
2021/05/28 11:29:42;;;;;;;0.98;0.98;;;23.60;99.90;;;;;;5010475;28;20208;-61
2021/05/28 11:32:30;;;;;;;0.65;0.65;;;23.40;99.90;;;;;;5010348;28;20205;-62
2021/05/28 11:35:16;;;;;;;0.43;0.20;;;23.50;99.90;;;;;;5010208;28;20306;-62
2021/05/28 11:37:44;;;;;;;0.68;0.68;;;23.70;99.90;;;;;;5010373;28;20205;-62
2021/05/28 11:40:12;;;;;;;0.10;0.10;;;24.20;99.90;;;;;;5010160;28;20201;-62
2021/05/28 11:42:40;;;;;;;0.00;0.00;;;24.60;99.90;;;;;;5010025;28;20205;-62
2021/05/28 11:45:09;;;;;;;0.00;0.00;;;24.80;99.90;;;;;;5010602;28;20276;-62
2021/05/28 11:47:37;;;;;;;0.00;0.00;;;24.80;99.90;;;;;;5010499;28;20235;-64
2021/05/28 11:50:05;;;;;;;0.10;0.10;;;25.20;99.90;;;;;;5010128;28;20218;-62
2021/05/28 11:52:32;;;;;;;0.32;0.32;;;25.70;99.90;;;;;;5008924;28;20211;-63
2021/05/28 11:55:09;;;;;;;0.57;0.57;;;25.90;99.90;;;;;;5009551;28;20648;-63
2021/05/28 11:57:36;;;;;;;0.00;0.00;;;26.10;99.90;;;;;;5011172;28;20204;-64
2021/05/28 12:00:08;;;;;;;0.80;0.80;;;26.50;99.90;;;;;;5010091;28;20662;-63
2021/05/28 12:02:40;;;;;;;0.30;0.30;;;26.50;99.90;;;;;;5010113;28;20208;-64
2021/05/28 12:05:15;;;;;;;0.80;0.80;;;26.10;99.90;;;;;;5010370;28;20219;-62
2021/05/28 12:07:42;;;;;;;0.00;0.00;;;25.70;99.90;;;;;;5009969;28;20714;-63
2021/05/28 12:10:11;;;;;;;0.13;0.13;;;25.30;99.90;;;;;;5009983;28;20229;-62
2021/05/28 12:12:50;;;;;;;0.75;0.75;;;24.80;99.90;;;;;;5009912;28;20204;-62
2021/05/28 12:15:18;;;;;;;0.57;0.55;;;24.80;99.90;;;;;;5010065;28;20208;-62
2021/05/28 12:17:45;;;;;;;0.35;0.30;;;24.80;99.90;;;;;;5009625;28;20220;-63
2021/05/28 12:20:25;;;;;;;0.10;0.10;;;24.50;99.90;;;;;;5014056;28;20196;-65
2021/05/28 12:23:07;;;;;;;0.00;0.00;;;24.00;99.90;;;;;;4999892;28;20269;-64
2021/05/28 12:25:36;;;;;;;0.20;0.20;;;24.40;99.90;;;;;;4999655;28;20200;-63
2021/05/28 12:28:11;;;;;;;0.00;0.00;;;24.80;99.90;;;;;;5016561;28;20282;-64
2021/05/28 12:30:39;;;;;;;1.23;0.85;;;25.20;99.90;;;;;;5016434;28;20196;-63
2021/05/28 12:33:07;;;;;;;0.00;0.00;;;25.70;99.90;;;;;;5016579;28;20215;-63
2021/05/28 12:35:34;;;;;;;0.43;0.15;;;26.00;99.90;;;;;;5016120;28;20242;-66
2021/05/28 12:38:05;;;;;;;1.77;0.85;;;26.30;99.90;;;;;;5016290;28;20654;-63
2021/05/28 12:40:33;;;;;;;0.10;0.10;;;26.20;99.90;;;;;;5016333;28;20201;-63
2021/05/28 12:43:00;;;;;;;17.70;15.32;;;26.30;99.90;;;;;;5016021;28;20208;-63
2021/05/28 12:45:42;;;;;;;2.28;1.65;;;26.30;99.90;;;;;;5016138;28;20209;-62
2021/05/28 12:48:11;;;;;;;0.00;0.00;;;25.90;99.90;;;;;;5015987;28;20220;-63
2021/05/28 12:50:39;;;;;;;0.00;0.00;;;25.90;99.90;;;;;;5015957;28;20247;-63
2021/05/28 12:53:13;;;;;;;0.10;0.10;;;25.70;99.90;;;;;;5018398;28;20205;-62
2021/05/28 12:55:41;;;;;;;0.08;0.08;;;25.60;99.90;;;;;;5015333;28;20670;-64
2021/05/28 12:58:25;;;;;;;0.00;0.00;;;25.70;99.90;;;;;;5016331;28;20208;-66